sensor_id;sensor_type;location;lat;lon;timestamp;P1;durP1;ratioP1;P2;durP2;ratioP2
8088;SDS011;57635;49.194;12.104;2023-07-22T00:01:23;5.30;;;4.90;;
8088;SDS011;57635;49.194;12.104;2023-07-22T00:03:51;5.20;;;4.80;;
8088;SDS011;57635;49.194;12.104;2023-07-22T00:06:19;6.30;;;4.67;;
8088;SDS011;57635;49.194;12.104;2023-07-22T00:08:46;5.17;;;4.30;;
8088;SDS011;57635;49.194;12.104;2023-07-22T00:11:14;4.40;;;4.10;;
8088;SDS011;57635;49.194;12.104;2023-07-22T00:13:43;5.07;;;4.77;;
8088;SDS011;57635;49.194;12.104;2023-07-22T00:16:11;4.90;;;4.57;;
8088;SDS011;57635;49.194;12.104;2023-07-22T00:18:39;4.97;;;4.57;;
8088;SDS011;57635;49.194;12.104;2023-07-22T00:21:06;5.00;;;4.37;;
8088;SDS011;57635;49.194;12.104;2023-07-22T00:23:35;5.07;;;4.60;;
8088;SDS011;57635;49.194;12.104;2023-07-22T00:26:02;5.60;;;5.10;;
8088;SDS011;57635;49.194;12.104;2023-07-22T00:28:30;5.13;;;4.63;;
8088;SDS011;57635;49.194;12.104;2023-07-22T00:30:59;4.90;;;4.50;;
8088;SDS011;57635;49.194;12.104;2023-07-22T00:33:29;4.67;;;4.30;;
8088;SDS011;57635;49.194;12.104;2023-07-22T00:35:57;5.33;;;4.83;;
8088;SDS011;57635;49.194;12.104;2023-07-22T00:38:24;5.40;;;5.00;;
8088;SDS011;57635;49.194;12.104;2023-07-22T00:40:53;5.57;;;5.17;;
8088;SDS011;57635;49.194;12.104;2023-07-22T00:43:20;5.43;;;5.03;;
8088;SDS011;57635;49.194;12.104;2023-07-22T00:45:48;5.10;;;4.70;;
8088;SDS011;57635;49.194;12.104;2023-07-22T00:48:17;5.10;;;4.67;;
8088;SDS011;57635;49.194;12.104;2023-07-22T00:50:45;6.07;;;4.87;;
8088;SDS011;57635;49.194;12.104;2023-07-22T00:53:13;5.47;;;5.10;;
8088;SDS011;57635;49.194;12.104;2023-07-22T00:55:41;5.90;;;5.30;;
8088;SDS011;57635;49.194;12.104;2023-07-22T00:58:09;5.00;;;4.50;;
8088;SDS011;57635;49.194;12.104;2023-07-22T01:00:36;4.60;;;4.30;;
8088;SDS011;57635;49.194;12.104;2023-07-22T01:03:04;5.37;;;3.80;;
8088;SDS011;57635;49.194;12.104;2023-07-22T01:05:35;6.30;;;5.00;;
8088;SDS011;57635;49.194;12.104;2023-07-22T01:08:04;4.60;;;4.30;;
8088;SDS011;57635;49.194;12.104;2023-07-22T01:10:32;4.70;;;4.40;;
8088;SDS011;57635;49.194;12.104;2023-07-22T01:12:59;4.73;;;4.40;;
8088;SDS011;57635;49.194;12.104;2023-07-22T01:15:27;5.03;;;4.63;;
8088;SDS011;57635;49.194;12.104;2023-07-22T01:17:56;4.87;;;4.50;;
8088;SDS011;57635;49.194;12.104;2023-07-22T01:20:28;4.67;;;4.37;;
8088;SDS011;57635;49.194;12.104;2023-07-22T01:22:57;5.43;;;4.93;;
8088;SDS011;57635;49.194;12.104;2023-07-22T01:25:26;4.53;;;4.13;;
8088;SDS011;57635;49.194;12.104;2023-07-22T01:27:55;4.17;;;3.87;;
8088;SDS011;57635;49.194;12.104;2023-07-22T01:30:23;4.37;;;4.00;;
8088;SDS011;57635;49.194;12.104;2023-07-22T01:32:52;4.30;;;4.00;;
8088;SDS011;57635;49.194;12.104;2023-07-22T01:35:20;4.80;;;4.50;;
8088;SDS011;57635;49.194;12.104;2023-07-22T01:37:48;4.77;;;4.37;;
8088;SDS011;57635;49.194;12.104;2023-07-22T01:40:17;4.50;;;4.20;;
8088;SDS011;57635;49.194;12.104;2023-07-22T01:42:45;4.70;;;4.40;;
8088;SDS011;57635;49.194;12.104;2023-07-22T01:45:13;3.93;;;3.63;;
8088;SDS011;57635;49.194;12.104;2023-07-22T01:47:40;5.10;;;4.60;;
8088;SDS011;57635;49.194;12.104;2023-07-22T01:50:08;4.27;;;3.97;;
8088;SDS011;57635;49.194;12.104;2023-07-22T01:52:37;4.20;;;3.80;;
8088;SDS011;57635;49.194;12.104;2023-07-22T01:55:05;4.67;;;4.20;;
8088;SDS011;57635;49.194;12.104;2023-07-22T01:57:39;4.53;;;4.23;;
8088;SDS011;57635;49.194;12.104;2023-07-22T02:00:07;3.90;;;3.70;;
8088;SDS011;57635;49.194;12.104;2023-07-22T02:02:37;4.27;;;3.97;;
8088;SDS011;57635;49.194;12.104;2023-07-22T02:05:05;5.43;;;5.03;;
8088;SDS011;57635;49.194;12.104;2023-07-22T02:07:33;4.23;;;3.93;;
8088;SDS011;57635;49.194;12.104;2023-07-22T02:10:02;4.40;;;4.10;;
8088;SDS011;57635;49.194;12.104;2023-07-22T02:12:30;4.63;;;4.10;;
8088;SDS011;57635;49.194;12.104;2023-07-22T02:14:59;4.47;;;4.13;;
8088;SDS011;57635;49.194;12.104;2023-07-22T02:17:26;4.23;;;3.93;;
8088;SDS011;57635;49.194;12.104;2023-07-22T02:19:54;5.07;;;4.63;;
8088;SDS011;57635;49.194;12.104;2023-07-22T02:22:22;4.30;;;4.00;;
8088;SDS011;57635;49.194;12.104;2023-07-22T02:24:50;4.30;;;3.87;;
8088;SDS011;57635;49.194;12.104;2023-07-22T02:27:18;3.97;;;3.77;;
8088;SDS011;57635;49.194;12.104;2023-07-22T02:29:46;4.70;;;4.30;;
8088;SDS011;57635;49.194;12.104;2023-07-22T02:32:15;4.37;;;4.10;;
8088;SDS011;57635;49.194;12.104;2023-07-22T02:34:43;4.17;;;3.87;;
8088;SDS011;57635;49.194;12.104;2023-07-22T02:37:10;4.73;;;4.33;;
8088;SDS011;57635;49.194;12.104;2023-07-22T02:39:38;5.40;;;4.90;;
8088;SDS011;57635;49.194;12.104;2023-07-22T02:42:06;5.00;;;4.60;;
8088;SDS011;57635;49.194;12.104;2023-07-22T02:44:34;5.27;;;4.80;;
8088;SDS011;57635;49.194;12.104;2023-07-22T02:47:02;4.50;;;4.10;;
8088;SDS011;57635;49.194;12.104;2023-07-22T02:49:31;4.60;;;4.30;;
8088;SDS011;57635;49.194;12.104;2023-07-22T02:51:59;4.87;;;4.57;;
8088;SDS011;57635;49.194;12.104;2023-07-22T02:54:27;3.90;;;3.70;;
8088;SDS011;57635;49.194;12.104;2023-07-22T02:56:55;4.03;;;3.73;;
8088;SDS011;57635;49.194;12.104;2023-07-22T02:59:22;6.53;;;4.30;;
8088;SDS011;57635;49.194;12.104;2023-07-22T03:01:50;4.40;;;4.00;;
8088;SDS011;57635;49.194;12.104;2023-07-22T03:04:19;4.53;;;4.23;;
8088;SDS011;57635;49.194;12.104;2023-07-22T03:06:48;6.90;;;4.40;;
8088;SDS011;57635;49.194;12.104;2023-07-22T03:09:16;4.53;;;4.20;;
8088;SDS011;57635;49.194;12.104;2023-07-22T03:11:43;5.13;;;4.57;;
8088;SDS011;57635;49.194;12.104;2023-07-22T03:14:11;4.70;;;4.40;;
8088;SDS011;57635;49.194;12.104;2023-07-22T03:16:39;4.33;;;4.03;;
8088;SDS011;57635;49.194;12.104;2023-07-22T03:19:06;4.33;;;4.03;;
8088;SDS011;57635;49.194;12.104;2023-07-22T03:21:36;4.70;;;4.40;;
8088;SDS011;57635;49.194;12.104;2023-07-22T03:24:05;4.33;;;4.03;;
8088;SDS011;57635;49.194;12.104;2023-07-22T03:26:33;4.43;;;4.03;;
8088;SDS011;57635;49.194;12.104;2023-07-22T03:29:01;4.70;;;4.40;;
8088;SDS011;57635;49.194;12.104;2023-07-22T03:31:31;5.00;;;4.60;;
8088;SDS011;57635;49.194;12.104;2023-07-22T03:33:58;5.50;;;5.03;;
8088;SDS011;57635;49.194;12.104;2023-07-22T03:36:27;5.87;;;4.77;;
8088;SDS011;57635;49.194;12.104;2023-07-22T03:38:54;5.03;;;4.63;;
8088;SDS011;57635;49.194;12.104;2023-07-22T03:41:23;5.10;;;4.70;;
8088;SDS011;57635;49.194;12.104;2023-07-22T03:43:51;4.77;;;4.33;;
8088;SDS011;57635;49.194;12.104;2023-07-22T03:46:19;6.33;;;4.37;;
8088;SDS011;57635;49.194;12.104;2023-07-22T03:48:46;4.53;;;4.23;;
8088;SDS011;57635;49.194;12.104;2023-07-22T03:51:14;4.43;;;4.03;;
8088;SDS011;57635;49.194;12.104;2023-07-22T03:53:46;4.40;;;4.10;;
8088;SDS011;57635;49.194;12.104;2023-07-22T03:56:14;4.70;;;4.30;;
8088;SDS011;57635;49.194;12.104;2023-07-22T03:58:43;4.50;;;4.20;;
8088;SDS011;57635;49.194;12.104;2023-07-22T04:01:11;4.87;;;4.57;;
8088;SDS011;57635;49.194;12.104;2023-07-22T04:03:39;4.53;;;4.23;;
8088;SDS011;57635;49.194;12.104;2023-07-22T04:06:07;4.70;;;4.30;;
8088;SDS011;57635;49.194;12.104;2023-07-22T04:08:35;4.57;;;4.27;;
8088;SDS011;57635;49.194;12.104;2023-07-22T04:11:02;4.37;;;4.07;;
8088;SDS011;57635;49.194;12.104;2023-07-22T04:13:30;4.33;;;4.10;;
8088;SDS011;57635;49.194;12.104;2023-07-22T04:15:59;4.50;;;4.17;;
8088;SDS011;57635;49.194;12.104;2023-07-22T04:18:27;4.30;;;4.00;;
8088;SDS011;57635;49.194;12.104;2023-07-22T04:20:59;4.53;;;4.13;;
8088;SDS011;57635;49.194;12.104;2023-07-22T04:23:27;4.47;;;4.00;;
8088;SDS011;57635;49.194;12.104;2023-07-22T04:25:54;4.97;;;4.60;;
8088;SDS011;57635;49.194;12.104;2023-07-22T04:28:22;4.43;;;4.13;;
8088;SDS011;57635;49.194;12.104;2023-07-22T04:30:56;4.70;;;4.33;;
8088;SDS011;57635;49.194;12.104;2023-07-22T04:33:26;4.33;;;3.97;;
8088;SDS011;57635;49.194;12.104;2023-07-22T04:35:57;5.20;;;4.70;;
8088;SDS011;57635;49.194;12.104;2023-07-22T04:38:27;4.50;;;4.20;;
8088;SDS011;57635;49.194;12.104;2023-07-22T04:40:55;4.53;;;4.23;;
8088;SDS011;57635;49.194;12.104;2023-07-22T04:43:22;4.43;;;4.13;;
8088;SDS011;57635;49.194;12.104;2023-07-22T04:45:51;4.50;;;4.20;;
8088;SDS011;57635;49.194;12.104;2023-07-22T04:48:19;5.20;;;4.77;;
8088;SDS011;57635;49.194;12.104;2023-07-22T04:50:49;4.10;;;3.80;;
8088;SDS011;57635;49.194;12.104;2023-07-22T04:53:17;5.10;;;4.60;;
8088;SDS011;57635;49.194;12.104;2023-07-22T04:55:45;5.10;;;4.70;;
8088;SDS011;57635;49.194;12.104;2023-07-22T04:58:13;5.30;;;4.83;;
8088;SDS011;57635;49.194;12.104;2023-07-22T05:00:41;4.70;;;4.40;;
8088;SDS011;57635;49.194;12.104;2023-07-22T05:03:09;5.03;;;4.63;;
8088;SDS011;57635;49.194;12.104;2023-07-22T05:05:37;4.30;;;4.00;;
8088;SDS011;57635;49.194;12.104;2023-07-22T05:08:06;5.23;;;4.83;;
8088;SDS011;57635;49.194;12.104;2023-07-22T05:10:35;4.00;;;3.70;;
8088;SDS011;57635;49.194;12.104;2023-07-22T05:13:04;4.80;;;4.40;;
8088;SDS011;57635;49.194;12.104;2023-07-22T05:15:31;6.00;;;5.00;;
8088;SDS011;57635;49.194;12.104;2023-07-22T05:17:59;5.37;;;4.87;;
8088;SDS011;57635;49.194;12.104;2023-07-22T05:20:27;5.13;;;4.67;;
8088;SDS011;57635;49.194;12.104;2023-07-22T05:22:55;4.97;;;4.57;;
8088;SDS011;57635;49.194;12.104;2023-07-22T05:25:24;4.60;;;4.30;;
8088;SDS011;57635;49.194;12.104;2023-07-22T05:27:52;5.20;;;4.80;;
8088;SDS011;57635;49.194;12.104;2023-07-22T05:30:19;5.53;;;4.87;;
8088;SDS011;57635;49.194;12.104;2023-07-22T05:32:59;4.77;;;4.40;;
8088;SDS011;57635;49.194;12.104;2023-07-22T05:35:27;4.80;;;4.40;;
8088;SDS011;57635;49.194;12.104;2023-07-22T05:37:55;5.27;;;4.87;;
8088;SDS011;57635;49.194;12.104;2023-07-22T05:40:24;4.73;;;4.33;;
8088;SDS011;57635;49.194;12.104;2023-07-22T05:42:52;4.57;;;4.17;;
8088;SDS011;57635;49.194;12.104;2023-07-22T05:45:19;3.93;;;3.73;;
8088;SDS011;57635;49.194;12.104;2023-07-22T05:47:47;4.67;;;4.27;;
8088;SDS011;57635;49.194;12.104;2023-07-22T05:50:15;4.80;;;4.23;;
8088;SDS011;57635;49.194;12.104;2023-07-22T05:52:43;4.40;;;4.00;;
8088;SDS011;57635;49.194;12.104;2023-07-22T05:55:11;4.77;;;4.37;;
8088;SDS011;57635;49.194;12.104;2023-07-22T05:57:40;4.50;;;4.10;;
8088;SDS011;57635;49.194;12.104;2023-07-22T06:00:08;4.63;;;4.23;;
8088;SDS011;57635;49.194;12.104;2023-07-22T06:02:39;4.00;;;3.63;;
8088;SDS011;57635;49.194;12.104;2023-07-22T06:05:07;3.67;;;3.47;;
8088;SDS011;57635;49.194;12.104;2023-07-22T06:07:35;3.97;;;3.67;;
8088;SDS011;57635;49.194;12.104;2023-07-22T06:10:03;4.40;;;4.10;;
8088;SDS011;57635;49.194;12.104;2023-07-22T06:12:31;4.30;;;4.00;;
8088;SDS011;57635;49.194;12.104;2023-07-22T06:15:00;3.93;;;3.63;;
8088;SDS011;57635;49.194;12.104;2023-07-22T06:17:29;4.07;;;3.77;;
8088;SDS011;57635;49.194;12.104;2023-07-22T06:19:56;5.83;;;4.00;;
8088;SDS011;57635;49.194;12.104;2023-07-22T06:22:24;3.63;;;3.43;;
8088;SDS011;57635;49.194;12.104;2023-07-22T06:24:52;4.27;;;3.90;;
8088;SDS011;57635;49.194;12.104;2023-07-22T06:27:20;8.70;;;6.50;;
8088;SDS011;57635;49.194;12.104;2023-07-22T06:29:48;5.40;;;4.00;;
8088;SDS011;57635;49.194;12.104;2023-07-22T06:32:17;3.90;;;3.60;;
8088;SDS011;57635;49.194;12.104;2023-07-22T06:34:45;3.93;;;3.27;;
8088;SDS011;57635;49.194;12.104;2023-07-22T06:37:12;4.10;;;3.70;;
8088;SDS011;57635;49.194;12.104;2023-07-22T06:39:40;3.70;;;3.40;;
8088;SDS011;57635;49.194;12.104;2023-07-22T06:42:08;4.30;;;4.00;;
8088;SDS011;57635;49.194;12.104;2023-07-22T06:44:35;3.60;;;3.40;;
8088;SDS011;57635;49.194;12.104;2023-07-22T06:47:03;3.93;;;3.63;;
8088;SDS011;57635;49.194;12.104;2023-07-22T06:49:32;3.83;;;3.00;;
8088;SDS011;57635;49.194;12.104;2023-07-22T06:52:00;3.93;;;3.63;;
8088;SDS011;57635;49.194;12.104;2023-07-22T06:54:29;4.03;;;3.73;;
8088;SDS011;57635;49.194;12.104;2023-07-22T06:56:56;5.93;;;3.73;;
8088;SDS011;57635;49.194;12.104;2023-07-22T06:59:24;3.80;;;3.60;;
8088;SDS011;57635;49.194;12.104;2023-07-22T07:01:52;6.07;;;3.30;;
8088;SDS011;57635;49.194;12.104;2023-07-22T07:04:20;4.67;;;3.80;;
8088;SDS011;57635;49.194;12.104;2023-07-22T07:06:49;3.50;;;3.20;;
8088;SDS011;57635;49.194;12.104;2023-07-22T07:09:17;4.13;;;3.30;;
8088;SDS011;57635;49.194;12.104;2023-07-22T07:11:44;5.60;;;3.70;;
8088;SDS011;57635;49.194;12.104;2023-07-22T07:14:12;4.10;;;3.80;;
8088;SDS011;57635;49.194;12.104;2023-07-22T07:16:40;3.70;;;3.40;;
8088;SDS011;57635;49.194;12.104;2023-07-22T07:19:08;3.43;;;3.13;;
8088;SDS011;57635;49.194;12.104;2023-07-22T07:21:36;3.97;;;3.70;;
8088;SDS011;57635;49.194;12.104;2023-07-22T07:24:05;3.90;;;3.60;;
8088;SDS011;57635;49.194;12.104;2023-07-22T07:26:33;6.90;;;6.37;;
8088;SDS011;57635;49.194;12.104;2023-07-22T07:29:00;18.67;;;14.90;;
8088;SDS011;57635;49.194;12.104;2023-07-22T07:31:28;3.93;;;3.70;;
8088;SDS011;57635;49.194;12.104;2023-07-22T07:33:58;3.53;;;3.33;;
8088;SDS011;57635;49.194;12.104;2023-07-22T07:36:26;3.87;;;3.63;;
8088;SDS011;57635;49.194;12.104;2023-07-22T07:38:54;3.43;;;3.13;;
8088;SDS011;57635;49.194;12.104;2023-07-22T07:41:24;4.07;;;3.77;;
8088;SDS011;57635;49.194;12.104;2023-07-22T07:43:51;3.53;;;3.23;;
8088;SDS011;57635;49.194;12.104;2023-07-22T07:46:20;4.10;;;3.80;;
8088;SDS011;57635;49.194;12.104;2023-07-22T07:48:49;3.23;;;3.03;;
8088;SDS011;57635;49.194;12.104;2023-07-22T07:51:18;3.53;;;3.23;;
8088;SDS011;57635;49.194;12.104;2023-07-22T07:53:47;3.60;;;3.40;;
8088;SDS011;57635;49.194;12.104;2023-07-22T07:56:15;3.40;;;3.20;;
8088;SDS011;57635;49.194;12.104;2023-07-22T07:58:45;3.27;;;2.97;;
8088;SDS011;57635;49.194;12.104;2023-07-22T08:01:14;3.13;;;2.93;;
8088;SDS011;57635;49.194;12.104;2023-07-22T08:03:42;3.27;;;3.07;;
8088;SDS011;57635;49.194;12.104;2023-07-22T08:06:11;3.30;;;2.97;;
8088;SDS011;57635;49.194;12.104;2023-07-22T08:08:38;2.90;;;2.80;;
8088;SDS011;57635;49.194;12.104;2023-07-22T08:11:07;2.90;;;2.80;;
8088;SDS011;57635;49.194;12.104;2023-07-22T08:13:35;3.17;;;2.97;;
8088;SDS011;57635;49.194;12.104;2023-07-22T08:16:06;3.70;;;3.40;;
8088;SDS011;57635;49.194;12.104;2023-07-22T08:18:35;3.10;;;2.90;;
8088;SDS011;57635;49.194;12.104;2023-07-22T08:21:03;4.10;;;3.77;;
8088;SDS011;57635;49.194;12.104;2023-07-22T08:23:32;4.03;;;3.63;;
8088;SDS011;57635;49.194;12.104;2023-07-22T08:26:00;3.10;;;2.90;;
8088;SDS011;57635;49.194;12.104;2023-07-22T08:28:29;3.30;;;2.80;;
8088;SDS011;57635;49.194;12.104;2023-07-22T08:30:57;2.77;;;2.63;;
8088;SDS011;57635;49.194;12.104;2023-07-22T08:33:28;3.43;;;3.13;;
8088;SDS011;57635;49.194;12.104;2023-07-22T08:36:07;3.00;;;2.80;;
8088;SDS011;57635;49.194;12.104;2023-07-22T08:38:34;3.17;;;2.87;;
8088;SDS011;57635;49.194;12.104;2023-07-22T08:41:02;3.20;;;3.00;;
8088;SDS011;57635;49.194;12.104;2023-07-22T08:43:30;4.00;;;2.83;;
8088;SDS011;57635;49.194;12.104;2023-07-22T08:45:59;2.93;;;2.73;;
8088;SDS011;57635;49.194;12.104;2023-07-22T08:48:30;3.23;;;3.03;;
8088;SDS011;57635;49.194;12.104;2023-07-22T08:51:02;2.70;;;2.50;;
8088;SDS011;57635;49.194;12.104;2023-07-22T08:53:31;3.73;;;3.27;;
8088;SDS011;57635;49.194;12.104;2023-07-22T08:55:59;2.63;;;2.50;;
8088;SDS011;57635;49.194;12.104;2023-07-22T08:58:27;3.13;;;2.83;;
8088;SDS011;57635;49.194;12.104;2023-07-22T09:00:55;3.67;;;3.37;;
8088;SDS011;57635;49.194;12.104;2023-07-22T09:03:24;2.87;;;2.70;;
8088;SDS011;57635;49.194;12.104;2023-07-22T09:05:53;2.90;;;2.70;;
8088;SDS011;57635;49.194;12.104;2023-07-22T09:08:21;2.87;;;2.67;;
8088;SDS011;57635;49.194;12.104;2023-07-22T09:10:49;2.70;;;2.50;;
8088;SDS011;57635;49.194;12.104;2023-07-22T09:13:17;3.00;;;2.73;;
8088;SDS011;57635;49.194;12.104;2023-07-22T09:15:46;2.73;;;2.63;;
8088;SDS011;57635;49.194;12.104;2023-07-22T09:18:15;2.97;;;2.77;;
8088;SDS011;57635;49.194;12.104;2023-07-22T09:20:43;3.10;;;2.80;;
8088;SDS011;57635;49.194;12.104;2023-07-22T09:23:12;4.77;;;3.10;;
8088;SDS011;57635;49.194;12.104;2023-07-22T09:25:41;3.23;;;3.03;;
8088;SDS011;57635;49.194;12.104;2023-07-22T09:28:09;3.63;;;3.33;;
8088;SDS011;57635;49.194;12.104;2023-07-22T09:30:37;3.30;;;3.10;;
8088;SDS011;57635;49.194;12.104;2023-07-22T09:33:06;5.00;;;2.90;;
8088;SDS011;57635;49.194;12.104;2023-07-22T09:35:43;3.20;;;2.87;;
8088;SDS011;57635;49.194;12.104;2023-07-22T09:38:13;3.07;;;2.87;;
8088;SDS011;57635;49.194;12.104;2023-07-22T09:40:41;3.37;;;3.17;;
8088;SDS011;57635;49.194;12.104;2023-07-22T09:43:10;2.50;;;2.40;;
8088;SDS011;57635;49.194;12.104;2023-07-22T09:45:38;3.40;;;3.10;;
8088;SDS011;57635;49.194;12.104;2023-07-22T09:48:06;2.83;;;2.67;;
8088;SDS011;57635;49.194;12.104;2023-07-22T09:50:37;4.10;;;3.57;;
8088;SDS011;57635;49.194;12.104;2023-07-22T09:53:04;4.57;;;3.20;;
8088;SDS011;57635;49.194;12.104;2023-07-22T09:55:34;3.73;;;3.00;;
8088;SDS011;57635;49.194;12.104;2023-07-22T09:58:02;2.93;;;2.70;;
8088;SDS011;57635;49.194;12.104;2023-07-22T10:00:32;2.93;;;2.73;;
8088;SDS011;57635;49.194;12.104;2023-07-22T10:03:01;2.93;;;2.83;;
8088;SDS011;57635;49.194;12.104;2023-07-22T10:05:31;5.00;;;2.77;;
8088;SDS011;57635;49.194;12.104;2023-07-22T10:08:01;3.00;;;2.70;;
8088;SDS011;57635;49.194;12.104;2023-07-22T10:10:31;3.10;;;2.80;;
8088;SDS011;57635;49.194;12.104;2023-07-22T10:13:01;3.03;;;2.77;;
8088;SDS011;57635;49.194;12.104;2023-07-22T10:15:30;3.20;;;3.00;;
8088;SDS011;57635;49.194;12.104;2023-07-22T10:18:00;3.40;;;3.10;;
8088;SDS011;57635;49.194;12.104;2023-07-22T10:20:29;4.17;;;3.60;;
8088;SDS011;57635;49.194;12.104;2023-07-22T10:22:57;2.90;;;2.77;;
8088;SDS011;57635;49.194;12.104;2023-07-22T10:25:26;2.93;;;2.77;;
8088;SDS011;57635;49.194;12.104;2023-07-22T10:27:53;3.73;;;2.60;;
8088;SDS011;57635;49.194;12.104;2023-07-22T10:30:23;3.07;;;2.87;;
8088;SDS011;57635;49.194;12.104;2023-07-22T10:32:51;3.50;;;2.77;;
8088;SDS011;57635;49.194;12.104;2023-07-22T10:35:22;3.03;;;2.83;;
8088;SDS011;57635;49.194;12.104;2023-07-22T10:37:52;3.43;;;3.10;;
8088;SDS011;57635;49.194;12.104;2023-07-22T10:40:24;2.93;;;2.63;;
8088;SDS011;57635;49.194;12.104;2023-07-22T10:42:54;2.73;;;2.53;;
8088;SDS011;57635;49.194;12.104;2023-07-22T10:45:26;5.67;;;2.90;;
8088;SDS011;57635;49.194;12.104;2023-07-22T10:48:05;4.90;;;2.57;;
8088;SDS011;57635;49.194;12.104;2023-07-22T10:50:41;3.67;;;2.43;;
8088;SDS011;57635;49.194;12.104;2023-07-22T10:53:10;3.03;;;2.37;;
8088;SDS011;57635;49.194;12.104;2023-07-22T10:58:55;3.77;;;2.77;;
8088;SDS011;57635;49.194;12.104;2023-07-22T11:01:38;4.10;;;2.13;;
8088;SDS011;57635;49.194;12.104;2023-07-22T11:04:07;2.70;;;2.57;;
8088;SDS011;57635;49.194;12.104;2023-07-22T11:06:39;3.43;;;2.80;;
8088;SDS011;57635;49.194;12.104;2023-07-22T11:09:38;4.57;;;2.50;;
8088;SDS011;57635;49.194;12.104;2023-07-22T11:12:09;2.70;;;2.60;;
8088;SDS011;57635;49.194;12.104;2023-07-22T11:14:39;2.57;;;2.47;;
8088;SDS011;57635;49.194;12.104;2023-07-22T11:17:09;2.23;;;2.13;;
8088;SDS011;57635;49.194;12.104;2023-07-22T11:19:37;2.37;;;2.27;;
8088;SDS011;57635;49.194;12.104;2023-07-22T11:22:05;2.90;;;2.63;;
8088;SDS011;57635;49.194;12.104;2023-07-22T11:24:33;2.80;;;2.60;;
8088;SDS011;57635;49.194;12.104;2023-07-22T11:27:03;2.40;;;2.20;;
8088;SDS011;57635;49.194;12.104;2023-07-22T11:29:32;2.87;;;2.67;;
8088;SDS011;57635;49.194;12.104;2023-07-22T11:32:00;2.83;;;2.63;;
8088;SDS011;57635;49.194;12.104;2023-07-22T11:34:29;3.67;;;2.77;;
8088;SDS011;57635;49.194;12.104;2023-07-22T11:36:56;4.57;;;4.17;;
8088;SDS011;57635;49.194;12.104;2023-07-22T11:39:25;2.13;;;2.03;;
8088;SDS011;57635;49.194;12.104;2023-07-22T11:41:53;2.33;;;2.13;;
8088;SDS011;57635;49.194;12.104;2023-07-22T11:44:21;2.33;;;2.23;;
8088;SDS011;57635;49.194;12.104;2023-07-22T11:46:52;2.20;;;2.10;;
8088;SDS011;57635;49.194;12.104;2023-07-22T11:49:25;2.33;;;2.17;;
8088;SDS011;57635;49.194;12.104;2023-07-22T11:51:55;4.70;;;2.50;;
8088;SDS011;57635;49.194;12.104;2023-07-22T11:54:24;2.20;;;2.00;;
8088;SDS011;57635;49.194;12.104;2023-07-22T11:56:52;2.20;;;2.10;;
8088;SDS011;57635;49.194;12.104;2023-07-22T11:59:32;4.23;;;2.27;;
8088;SDS011;57635;49.194;12.104;2023-07-22T12:02:00;1.93;;;1.83;;
8088;SDS011;57635;49.194;12.104;2023-07-22T12:04:31;2.43;;;2.20;;
8088;SDS011;57635;49.194;12.104;2023-07-22T12:07:01;1.63;;;1.60;;
8088;SDS011;57635;49.194;12.104;2023-07-22T12:09:30;4.23;;;1.93;;
8088;SDS011;57635;49.194;12.104;2023-07-22T12:11:58;2.17;;;1.97;;
8088;SDS011;57635;49.194;12.104;2023-07-22T12:14:33;2.13;;;1.83;;
8088;SDS011;57635;49.194;12.104;2023-07-22T12:17:01;2.00;;;1.90;;
8088;SDS011;57635;49.194;12.104;2023-07-22T12:19:29;1.97;;;1.80;;
8088;SDS011;57635;49.194;12.104;2023-07-22T12:21:57;3.03;;;2.13;;
8088;SDS011;57635;49.194;12.104;2023-07-22T12:24:26;2.53;;;2.33;;
8088;SDS011;57635;49.194;12.104;2023-07-22T12:26:54;2.13;;;2.03;;
8088;SDS011;57635;49.194;12.104;2023-07-22T12:29:22;3.33;;;1.93;;
8088;SDS011;57635;49.194;12.104;2023-07-22T12:31:50;3.03;;;2.50;;
8088;SDS011;57635;49.194;12.104;2023-07-22T12:34:18;2.10;;;2.00;;
8088;SDS011;57635;49.194;12.104;2023-07-22T12:36:45;3.17;;;2.00;;
8088;SDS011;57635;49.194;12.104;2023-07-22T12:39:13;2.60;;;2.37;;
8088;SDS011;57635;49.194;12.104;2023-07-22T12:41:42;2.33;;;2.13;;
8088;SDS011;57635;49.194;12.104;2023-07-22T12:44:10;2.10;;;1.90;;
8088;SDS011;57635;49.194;12.104;2023-07-22T12:46:38;3.73;;;2.10;;
8088;SDS011;57635;49.194;12.104;2023-07-22T12:49:06;3.10;;;2.90;;
8088;SDS011;57635;49.194;12.104;2023-07-22T12:51:33;2.07;;;1.97;;
8088;SDS011;57635;49.194;12.104;2023-07-22T12:54:01;3.10;;;2.13;;
8088;SDS011;57635;49.194;12.104;2023-07-22T12:56:30;3.60;;;2.33;;
8088;SDS011;57635;49.194;12.104;2023-07-22T12:58:59;2.60;;;2.40;;
8088;SDS011;57635;49.194;12.104;2023-07-22T13:01:27;3.27;;;3.07;;
8088;SDS011;57635;49.194;12.104;2023-07-22T13:03:55;2.53;;;2.43;;
8088;SDS011;57635;49.194;12.104;2023-07-22T13:06:22;2.27;;;2.00;;
8088;SDS011;57635;49.194;12.104;2023-07-22T13:08:50;2.60;;;2.50;;
8088;SDS011;57635;49.194;12.104;2023-07-22T13:11:18;2.63;;;2.53;;
8088;SDS011;57635;49.194;12.104;2023-07-22T13:13:45;2.37;;;2.17;;
8088;SDS011;57635;49.194;12.104;2023-07-22T13:16:15;2.63;;;2.47;;
8088;SDS011;57635;49.194;12.104;2023-07-22T13:18:42;2.60;;;2.40;;
8088;SDS011;57635;49.194;12.104;2023-07-22T13:21:10;3.00;;;2.17;;
8088;SDS011;57635;49.194;12.104;2023-07-22T13:23:37;2.63;;;2.43;;
8088;SDS011;57635;49.194;12.104;2023-07-22T13:26:05;2.33;;;2.20;;
8088;SDS011;57635;49.194;12.104;2023-07-22T13:28:33;1.90;;;1.87;;
8088;SDS011;57635;49.194;12.104;2023-07-22T13:31:00;2.93;;;2.73;;
8088;SDS011;57635;49.194;12.104;2023-07-22T13:33:30;3.27;;;2.37;;
8088;SDS011;57635;49.194;12.104;2023-07-22T13:35:58;2.57;;;2.47;;
8088;SDS011;57635;49.194;12.104;2023-07-22T13:38:25;2.53;;;2.30;;
8088;SDS011;57635;49.194;12.104;2023-07-22T13:40:53;2.80;;;2.60;;
8088;SDS011;57635;49.194;12.104;2023-07-22T13:43:20;2.50;;;2.30;;
8088;SDS011;57635;49.194;12.104;2023-07-22T13:45:48;2.27;;;2.10;;
8088;SDS011;57635;49.194;12.104;2023-07-22T13:48:16;2.50;;;2.30;;
8088;SDS011;57635;49.194;12.104;2023-07-22T13:50:45;2.83;;;2.63;;
8088;SDS011;57635;49.194;12.104;2023-07-22T13:53:13;2.67;;;2.27;;
8088;SDS011;57635;49.194;12.104;2023-07-22T13:55:41;3.47;;;3.17;;
8088;SDS011;57635;49.194;12.104;2023-07-22T13:58:14;3.07;;;2.60;;
8088;SDS011;57635;49.194;12.104;2023-07-22T14:00:42;2.70;;;2.50;;
8088;SDS011;57635;49.194;12.104;2023-07-22T14:03:10;2.23;;;2.10;;
8088;SDS011;57635;49.194;12.104;2023-07-22T14:05:37;2.63;;;2.43;;
8088;SDS011;57635;49.194;12.104;2023-07-22T14:08:06;3.37;;;2.87;;
8088;SDS011;57635;49.194;12.104;2023-07-22T14:10:35;2.40;;;2.27;;
8088;SDS011;57635;49.194;12.104;2023-07-22T14:13:02;3.07;;;2.43;;
8088;SDS011;57635;49.194;12.104;2023-07-22T14:15:30;2.77;;;2.57;;
8088;SDS011;57635;49.194;12.104;2023-07-22T14:17:58;3.37;;;2.47;;
8088;SDS011;57635;49.194;12.104;2023-07-22T14:20:26;4.03;;;2.53;;
8088;SDS011;57635;49.194;12.104;2023-07-22T14:22:54;2.57;;;2.43;;
8088;SDS011;57635;49.194;12.104;2023-07-22T14:25:23;2.60;;;2.40;;
8088;SDS011;57635;49.194;12.104;2023-07-22T14:27:51;2.57;;;2.20;;
8088;SDS011;57635;49.194;12.104;2023-07-22T14:30:19;2.80;;;2.40;;
8088;SDS011;57635;49.194;12.104;2023-07-22T14:32:47;2.27;;;2.17;;
8088;SDS011;57635;49.194;12.104;2023-07-22T14:35:14;3.27;;;2.47;;
8088;SDS011;57635;49.194;12.104;2023-07-22T14:37:42;2.33;;;2.23;;
8088;SDS011;57635;49.194;12.104;2023-07-22T14:40:10;3.23;;;1.93;;
8088;SDS011;57635;49.194;12.104;2023-07-22T14:42:39;3.37;;;2.63;;
8088;SDS011;57635;49.194;12.104;2023-07-22T14:45:07;2.70;;;2.50;;
8088;SDS011;57635;49.194;12.104;2023-07-22T14:47:36;4.47;;;2.53;;
8088;SDS011;57635;49.194;12.104;2023-07-22T14:50:03;3.33;;;2.50;;
8088;SDS011;57635;49.194;12.104;2023-07-22T14:52:32;3.43;;;2.53;;
8088;SDS011;57635;49.194;12.104;2023-07-22T14:55:00;2.83;;;2.63;;
8088;SDS011;57635;49.194;12.104;2023-07-22T14:57:27;2.17;;;2.07;;
8088;SDS011;57635;49.194;12.104;2023-07-22T14:59:58;3.20;;;2.90;;